METAR (acronimo di METeorological Air Report) è un messaggio meteo emesso nella maggior parte dei casi in ambito aeroportuale

LIPF - Ferrara, It
Distanza dalla Stazione: 8 km
Ultimo Aggiornamento: Lunedì 06 Aprile 2020 08:55 CEST
Sereno
Sereno
 Wind from varies
Vento: variabile 0 km/h
Temperatura: 8°C
Punto di Rugiada: 5°C
Umidità: 82%
Barometro: 1026 hPa
Condizioni: Sereno
Visibilità: superiore a 10 km
2020/04/06 06:55 LIPF 060655Z /////KT CAVOK 08/05 Q1026
LIPE - Bologna Borgo Panigale, It
Distanza dalla Stazione: 46 km
Ultimo Aggiornamento: Lunedì 06 Aprile 2020 09:20 CEST
Sereno
Sereno
 Wind from Ovest
Vento: Ovest 9 km/h
Temperatura: 11°C
Punto di Rugiada: 3°C
Umidità: 58%
Barometro: 1026 hPa
Condizioni: Sereno
Visibilità: superiore a 10 km
2020/04/06 07:20 LIPE 060720Z 26005KT CAVOK 11/03 Q1026
LIMF - Torino Caselle, It
Distanza dalla Stazione: 320 km
Ultimo Aggiornamento: Lunedì 06 Aprile 2020 09:20 CEST
Sereno
Sereno
 Wind from Ovest-Sud-Ovest
Vento: Ovest-Sud-Ovest 6 km/h
Temperatura: 11°C
Punto di Rugiada: 3°C
Umidità: 58%
Barometro: 1027 hPa
Condizioni: Sereno
Visibilità: superiore a 10 km
2020/04/06 07:20 LIMF 060720Z 25003KT 220V290 CAVOK 11/03 Q1027
 
LIML - Milano Malpensa, It
Distanza dalla Stazione: 249 km
Ultimo Aggiornamento: Lunedì 06 Aprile 2020 09:20 CEST
Sereno
Sereno
 Wind from varies
Vento: variabile 4 km/h
Temperatura: 14°C
Punto di Rugiada: 3°C
Umidità: 48%
Barometro: 1027 hPa
Nuvole: Sereno
Visibilità: 10 km
2020/04/06 07:20 LIML 060720Z AUTO VRB02KT 9999 NCD 14/03 Q1027
LIME - Bergamo Orio al Serio, It
Distanza dalla Stazione: 181 km
Ultimo Aggiornamento: Lunedì 06 Aprile 2020 09:20 CEST
Sereno
Sereno
 Wind from Nord
Vento: Nord 9 km/h
Temperatura: 13°C
Punto di Rugiada: 3°C
Umidità: 51%
Barometro: 1027 hPa
Condizioni: Sereno
Visibilità: superiore a 10 km
2020/04/06 07:20 LIME 060720Z 01005KT CAVOK 13/03 Q1027 NOSIG
LIPZ - Venezia Tessera, It
Distanza dalla Stazione: 93 km
Ultimo Aggiornamento: Lunedì 06 Aprile 2020 09:20 CEST
Sereno
Sereno
 Wind from Nord-Est
Vento: Nord-Est 19 km/h
Temperatura: 14°C
Punto di Rugiada: 2°C
Umidità: 44%
Barometro: 1026 hPa
Condizioni: Sereno
Visibilità: superiore a 10 km
2020/04/06 07:20 LIPZ 060720Z 04010KT CAVOK 14/02 Q1026 NOSIG
 
LIVT - Trieste, It
Distanza dalla Stazione: 179 km
Ultimo Aggiornamento: Lunedì 06 Aprile 2020 08:55 CEST
Sereno
Sereno
 Wind from varies
Vento: variabile 0 km/h
Temperatura: 17°C
Punto di Rugiada: 2°C
Umidità: 37%
Barometro: 1025 hPa
Condizioni: Sereno
Visibilità: superiore a 10 km
2020/04/06 06:55 LIVT 060655Z /////KT CAVOK 17/02 Q1025
LIMJ - Genova, It
Distanza dalla Stazione: 229 km
Ultimo Aggiornamento: Lunedì 06 Aprile 2020 09:20 CEST
Sereno
Sereno
 Wind from Nord-Est
Vento: Nord-Est 28 km/h
Temperatura: 16°C
Punto di Rugiada: 1°C
Umidità: 36%
Barometro: 1024 hPa
Condizioni: Sereno
Visibilità: superiore a 10 km
2020/04/06 07:20 LIMJ 060720Z 04015KT CAVOK 16/01 Q1024
LIRQ - Firenze Amerigo Vespucci, It
Distanza dalla Stazione: 119 km
Ultimo Aggiornamento: Lunedì 06 Aprile 2020 09:20 CEST
Sereno
Sereno
 Wind from varies
Vento: variabile 6 km/h
Temperatura: 17°C
Punto di Rugiada: 2°C
Umidità: 37%
Barometro: 1024 hPa
Condizioni: Sereno
Visibilità: superiore a 10 km
2020/04/06 07:20 LIRQ 060720Z VRB03KT CAVOK 17/02 Q1024
 
LIPY - Ancona, It
Distanza dalla Stazione: 189 km
Ultimo Aggiornamento: Lunedì 06 Aprile 2020 08:50 CEST
Sereno
Sereno
 Wind from Sud
Vento: Sud 6 km/h
Temperatura: 11°C
Punto di Rugiada: 5°C
Umidità: 67%
Barometro: 1024 hPa
Condizioni: Sereno
Visibilità: superiore a 10 km
2020/04/06 06:50 LIPY 060650Z 19003KT 150V220 CAVOK 11/05 Q1024
LIBP - Pescara, It
Distanza dalla Stazione: 333 km
Ultimo Aggiornamento: Lunedì 06 Aprile 2020 08:50 CEST
Sereno
Sereno
 Wind from Ovest-Sud-Ovest
Vento: Ovest-Sud-Ovest 13 km/h
Temperatura: 10°C
Wind Chill: 8°C
Punto di Rugiada: 3°C
Umidità: 62%
Barometro: 1024 hPa
Condizioni: Sereno
Visibilità: superiore a 10 km
2020/04/06 06:50 LIBP 060650Z 24007KT CAVOK 10/03 Q1024
LIRF - Roma-Fiumicino, It
Distanza dalla Stazione: 334 km
Ultimo Aggiornamento: Lunedì 06 Aprile 2020 09:20 CEST
Sereno
Sereno
 Wind from varies
Vento: variabile 4 km/h
Temperatura: 14°C
Punto di Rugiada: 3°C
Umidità: 48%
Barometro: 1022 hPa
Condizioni: Sereno
Visibilità: superiore a 10 km
2020/04/06 07:20 LIRF 060720Z VRB02KT CAVOK 14/03 Q1022 NOSIG
 
LIRN - Napoli Capodichino, It
Distanza dalla Stazione: 494 km
Ultimo Aggiornamento: Lunedì 06 Aprile 2020 09:20 CEST
Sereno
Sereno
 Wind from Est-Nord-Est
Vento: Est-Nord-Est 7 km/h
Temperatura: 16°C
Punto di Rugiada: 4°C
Umidità: 45%
Barometro: 1021 hPa
Condizioni: Sereno
Visibilità: superiore a 10 km
2020/04/06 07:20 LIRN 060720Z 07004KT 020V150 CAVOK 16/04 Q1021 NOSIG
LIBD - Bari Palese, It
Distanza dalla Stazione: 594 km
Ultimo Aggiornamento: Lunedì 06 Aprile 2020 09:20 CEST
Sereno
Sereno
 Wind from Nord-Nord-Ovest
Vento: Nord-Nord-Ovest 7 km/h
Temperatura: 14°C
Punto di Rugiada: 10°C
Umidità: 77%
Barometro: 1023 hPa
Condizioni: Sereno
Visibilità: superiore a 10 km
2020/04/06 07:20 LIBD 060720Z 33004KT 290V020 CAVOK 14/10 Q1023
LIBG - Taranto Grottaglie, It
Distanza dalla Stazione: 670 km
Ultimo Aggiornamento: Lunedì 06 Aprile 2020 08:50 CEST
Parzialmente Nuvoloso
Parzialmente Nuvoloso
 Wind from Nord-Est
Vento: Nord-Est 17 km/h
Temperatura: 15°C
Punto di Rugiada: 11°C
Umidità: 77%
Barometro: 1021 hPa
Nuvole: Parzialmente Nuvoloso
Visibilità: 10 km
Nuvole nel Dettaglio: Parzialmente Nuvoloso 1372 m
2020/04/06 06:50 LIBG 060650Z 05009KT 9999 SCT045 15/11 Q1021
 
LICR - Reggio Calabria, It
Distanza dalla Stazione: 819 km
Ultimo Aggiornamento: Lunedì 06 Aprile 2020 08:50 CEST
Parzialmente Nuvoloso
Parzialmente Nuvoloso
 Wind from varies
Vento: variabile 2 km/h
Temperatura: 15°C
Punto di Rugiada: 10°C
Umidità: 72%
Barometro: 1020 hPa
Nuvole: Parzialmente Nuvoloso
Visibilità: 10 km
Nuvole nel Dettaglio: Parzialmente Nuvoloso 1829 m
2020/04/06 06:50 LICR 060650Z VRB01KT 9999 SCT060 15/10 Q1020
LICJ - Palermo Punta Raisi, It
Distanza dalla Stazione: 762 km
Ultimo Aggiornamento: Lunedì 06 Aprile 2020 09:20 CEST
Parzialmente Nuvoloso
Parzialmente Nuvoloso
 Wind from varies
Vento: variabile 4 km/h
Temperatura: 15°C
Punto di Rugiada: 12°C
Umidità: 82%
Barometro: 1021 hPa
Nuvole: Parzialmente Nuvoloso
Visibilità: 10 km
Nuvole nel Dettaglio: Parzialmente Nuvoloso 488 m
2020/04/06 07:20 LICJ 060720Z VRB02KT 9999 SCT016 15/12 Q1021
LICC - Catania Fontanarossa, It
Distanza dalla Stazione: 866 km
Ultimo Aggiornamento: Lunedì 06 Aprile 2020 09:20 CEST
Prevalentemente Nuvoloso
Prevalentemente Nuvoloso
 Wind from Ovest-Sud-Ovest
Vento: Ovest-Sud-Ovest 7 km/h
Temperatura: 13°C
Punto di Rugiada: 11°C
Umidità: 88%
Barometro: 1020 hPa
Nuvole: Prevalentemente Nuvoloso
Visibilità: 10 km
Nuvole nel Dettaglio: Prevalentemente Nuvoloso 1981 m
2020/04/06 07:20 LICC 060720Z 25004KT 9999 BKN065 13/11 Q1020
 
LIEE - Cagliari Elmas, It
Distanza dalla Stazione: 655 km
Ultimo Aggiornamento: Lunedì 06 Aprile 2020 09:20 CEST
Sereno
Sereno
 Wind from Nord-Ovest
Vento: Nord-Ovest 9 km/h
Temperatura: 10°C
Wind Chill: 9°C
Punto di Rugiada: 8°C
Umidità: 88%
Barometro: 1023 hPa
Condizioni: Sereno
Visibilità: superiore a 10 km
2020/04/06 07:20 LIEE 060720Z 31005KT CAVOK 10/08 Q1023
LIEO - Olbia, It
Distanza dalla Stazione: 463 km
Ultimo Aggiornamento: Lunedì 06 Aprile 2020 09:20 CEST
Sereno
Sereno
 Wind from Ovest-Sud-Ovest
Vento: Ovest-Sud-Ovest 9 km/h
Temperatura: 14°C
Punto di Rugiada: 7°C
Umidità: 63%
Barometro: 1023 hPa
Condizioni: Sereno
Visibilità: superiore a 10 km
2020/04/06 07:20 LIEO 060720Z 24005KT CAVOK 14/07 Q1023
LICG - Pantelleria, It
Distanza dalla Stazione: 893 km
Ultimo Aggiornamento: Lunedì 06 Aprile 2020 08:50 CEST
Parzialmente Nuvoloso
Parzialmente Nuvoloso
 Wind from Ovest-Nord-Ovest
Vento: Ovest-Nord-Ovest 15 km/h
Temperatura: 13°C
Punto di Rugiada: 11°C
Umidità: 88%
Barometro: 1021 hPa
Nuvole: Parzialmente Nuvoloso
Visibilità: 10 km
Nuvole nel Dettaglio: Parzialmente Nuvoloso 457 m
2020/04/06 06:50 LICG 060650Z 30008KT 9999 SCT015 13/11 Q1021